Time;durP1;ratioP1;P1;durP2;ratioP2;P2;SDS_P1;SDS_P2;PMS_P1;PMS_P2;Temp;Humidity;BMP_temperature;BMP_pressure;BME280_temperature;BME280_humidity;BME280_pressure;Samples;Min_cycle;Max_cycle;Signal;HPM_P1;HPM_P2
2022/07/17 00:01:11;;;;;;;10.40;1.92;;;;;;;15.18;56.55;99865.16;5056628;28;20399;-79
2022/07/17 00:03:36;;;;;;;4.05;1.70;;;;;;;15.49;55.39;99861.72;5054100;28;20032;-79
2022/07/17 00:06:02;;;;;;;3.28;1.38;;;;;;;15.57;55.28;99854.00;5056121;28;20029;-79
2022/07/17 00:08:27;;;;;;;6.75;1.50;;;;;;;15.59;55.13;99851.06;5046340;28;20034;-79
2022/07/17 00:10:53;;;;;;;3.60;1.35;;;;;;;15.69;54.96;99856.53;5063338;28;20036;-79
2022/07/17 00:13:18;;;;;;;3.72;1.20;;;;;;;15.67;54.62;99837.13;5062530;28;20476;-79
2022/07/17 00:15:44;;;;;;;4.30;1.40;;;;;;;15.73;55.02;99863.81;5056975;28;20103;-79
2022/07/17 00:18:09;;;;;;;3.67;1.20;;;;;;;15.67;55.22;99866.75;5064668;28;20028;-79
2022/07/17 00:20:35;;;;;;;3.60;1.80;;;;;;;15.53;55.21;99846.72;5052407;28;20033;-79
2022/07/17 00:23:01;;;;;;;5.45;1.40;;;;;;;15.65;54.90;99866.19;5059782;28;20031;-79
2022/07/17 00:25:26;;;;;;;3.42;1.50;;;;;;;15.47;55.44;99842.34;5067222;28;20495;-79
2022/07/17 00:27:52;;;;;;;3.53;1.40;;;;;;;15.49;55.20;99845.56;5056126;28;20036;-80
2022/07/17 00:30:18;;;;;;;2.90;1.65;;;;;;;15.54;55.06;99854.53;5060769;28;20028;-79
2022/07/17 00:32:44;;;;;;;4.70;1.55;;;;;;;15.53;55.34;99860.97;5056783;28;20032;-79
2022/07/17 00:35:09;;;;;;;3.90;1.55;;;;;;;15.38;55.52;99841.13;5060627;28;20472;-79
2022/07/17 00:37:40;;;;;;;5.65;1.90;;;;;;;15.37;55.56;99851.13;5045373;28;20488;-79
2022/07/17 00:40:06;;;;;;;1.50;1.25;;;;;;;15.38;55.61;99849.22;5041892;28;20072;-79
2022/07/17 00:42:32;;;;;;;3.90;1.20;;;;;;;15.42;55.52;99859.22;5044876;28;20033;-79
2022/07/17 00:44:57;;;;;;;3.67;1.35;;;;;;;15.32;55.52;99840.28;5061533;28;20121;-79
2022/07/17 00:47:23;;;;;;;2.60;1.30;;;;;;;15.28;55.62;99849.13;5061194;28;20392;-79
2022/07/17 00:49:48;;;;;;;3.25;1.67;;;;;;;15.22;55.72;99859.03;5057690;28;20120;-79
2022/07/17 00:52:15;;;;;;;2.83;1.40;;;;;;;15.24;55.73;99861.47;5040093;28;20128;-79
2022/07/17 00:54:43;;;;;;;4.82;2.15;;;;;;;15.09;55.83;99842.47;5061108;28;20032;-79
2022/07/17 00:57:11;;;;;;;4.50;2.40;;;;;;;15.13;55.89;99846.28;5059613;28;20345;-79
2022/07/17 00:59:37;;;;;;;5.30;2.53;;;;;;;15.15;56.14;99855.72;5057130;28;20035;-79
2022/07/17 01:02:08;;;;;;;4.70;1.80;;;;;;;15.02;56.10;99848.88;5064871;28;20020;-79
2022/07/17 01:04:34;;;;;;;8.93;2.40;;;;;;;15.14;56.15;99858.66;5061065;28;20473;-79
2022/07/17 01:07:01;;;;;;;6.93;1.83;;;;;;;15.05;56.26;99860.19;5061732;28;20537;-79
2022/07/17 01:09:28;;;;;;;3.30;1.42;;;;;;;14.97;56.38;99843.44;5060804;28;20041;-80
2022/07/17 01:11:55;;;;;;;5.20;1.80;;;;;;;15.01;56.27;99852.63;5056722;28;20032;-80
2022/07/17 01:14:22;;;;;;;3.88;1.58;;;;;;;14.90;56.36;99834.75;5046211;28;20028;-79
2022/07/17 01:16:48;;;;;;;7.07;2.15;;;;;;;14.89;56.57;99846.59;5042715;28;20555;-79
2022/07/17 01:19:14;;;;;;;2.47;1.63;;;;;;;14.86;56.44;99836.31;5059226;28;20032;-79
2022/07/17 01:21:41;;;;;;;3.22;1.48;;;;;;;14.87;56.73;99853.28;5058870;28;20419;-80
2022/07/17 01:24:07;;;;;;;3.55;1.55;;;;;;;14.73;56.78;99830.50;5062754;28;20040;-79
2022/07/17 01:26:32;;;;;;;3.90;3.40;;;;;;;14.77;56.59;99837.00;5063567;28;20033;-80
2022/07/17 01:28:58;;;;;;;3.83;1.50;;;;;;;14.78;56.64;99844.03;5058591;28;20115;-79
2022/07/17 01:31:23;;;;;;;5.43;1.60;;;;;;;14.73;56.78;99838.56;5044809;28;20036;-79
2022/07/17 01:33:49;;;;;;;5.22;1.58;;;;;;;14.63;57.07;99841.97;5041633;28;20032;-80
2022/07/17 01:36:14;;;;;;;6.55;1.90;;;;;;;14.64;57.29;99851.66;5060397;28;20043;-79
2022/07/17 01:38:40;;;;;;;4.25;1.35;;;;;;;14.62;57.63;99855.63;5057386;28;20020;-79
2022/07/17 01:41:06;;;;;;;5.55;2.30;;;;;;;14.47;57.73;99826.72;5059517;28;20024;-80
2022/07/17 01:43:31;;;;;;;5.40;1.75;;;;;;;14.49;57.77;99846.09;5072699;28;20480;-79
2022/07/17 01:45:57;;;;;;;5.43;1.52;;;;;;;14.27;57.68;99851.41;5057394;28;20037;-80
2022/07/17 01:48:24;;;;;;;6.70;2.17;;;;;;;14.68;57.49;99852.75;5059385;28;20040;-79
2022/07/17 01:50:49;;;;;;;3.30;1.80;;;;;;;14.30;57.75;99820.59;5061199;28;20124;-80
2022/07/17 01:53:14;;;;;;;5.00;1.90;;;;;;;14.23;57.93;99846.78;5057837;28;20028;-79
2022/07/17 01:55:40;;;;;;;2.10;1.52;;;;;;;14.29;58.25;99848.50;5031512;28;20430;-79
2022/07/17 01:58:05;;;;;;;2.35;1.38;;;;;;;14.42;58.05;99850.00;5058579;28;20040;-79
2022/07/17 02:00:30;;;;;;;2.17;1.23;;;;;;;14.28;57.99;99846.84;5045737;28;20032;-80
2022/07/17 02:02:56;;;;;;;3.65;1.70;;;;;;;14.29;58.38;99867.28;5043051;28;20036;-79
2022/07/17 02:05:21;;;;;;;3.67;1.65;;;;;;;14.17;58.53;99842.41;5053461;28;20123;-80
2022/07/17 02:07:47;;;;;;;3.13;1.60;;;;;;;14.22;58.28;99863.94;5056920;28;20098;-79
2022/07/17 02:10:16;;;;;;;4.40;1.52;;;;;;;14.32;58.28;99857.94;5061067;28;20518;-79
2022/07/17 02:12:43;;;;;;;7.40;1.70;;;;;;;14.22;58.09;99845.94;5059966;28;20024;-79
2022/07/17 02:15:08;;;;;;;3.42;1.63;;;;;;;14.20;58.78;99852.63;5043764;28;20111;-79
2022/07/17 02:17:34;;;;;;;2.70;1.45;;;;;;;14.13;58.23;99849.31;5058149;28;20028;-79
2022/07/17 02:19:59;;;;;;;4.78;1.60;;;;;;;14.15;58.48;99861.41;5075952;28;20115;-79
2022/07/17 02:22:24;;;;;;;3.38;1.58;;;;;;;14.12;58.49;99850.38;5062561;28;20464;-79
2022/07/17 02:24:50;;;;;;;3.70;1.73;;;;;;;14.10;58.54;99852.50;5045495;28;20051;-80
2022/07/17 02:27:15;;;;;;;5.22;1.60;;;;;;;14.01;58.64;99849.41;5061404;28;20025;-79
2022/07/17 02:29:41;;;;;;;4.22;1.70;;;;;;;13.90;59.10;99844.13;5061702;28;20644;-79
2022/07/17 02:32:06;;;;;;;5.22;1.70;;;;;;;14.10;58.84;99861.38;5056282;28;20040;-80
2022/07/17 02:34:31;;;;;;;4.13;1.80;;;;;;;13.97;59.06;99860.88;5062638;28;20043;-79
2022/07/17 02:36:57;;;;;;;4.07;1.65;;;;;;;13.94;59.04;99862.19;5060735;28;20041;-79
2022/07/17 02:39:22;;;;;;;5.32;1.98;;;;;;;13.81;59.40;99870.56;5062053;28;20048;-79
2022/07/17 02:41:47;;;;;;;4.45;2.15;;;;;;;13.86;59.27;99870.66;5058169;28;20163;-80
2022/07/17 02:44:13;;;;;;;2.45;1.30;;;;;;;13.80;59.31;99871.66;5061396;28;20040;-79
2022/07/17 02:46:38;;;;;;;4.65;2.00;;;;;;;13.76;59.60;99869.69;5046408;28;20033;-79
2022/07/17 02:49:04;;;;;;;4.35;1.65;;;;;;;13.82;59.16;99866.84;5060216;28;20059;-80
2022/07/17 02:51:29;;;;;;;4.13;2.03;;;;;;;13.86;59.38;99872.53;5060491;28;20028;-79
2022/07/17 02:53:54;;;;;;;3.63;1.70;;;;;;;13.69;59.47;99866.34;5062975;28;20048;-79
2022/07/17 02:56:20;;;;;;;3.85;1.85;;;;;;;13.77;59.26;99868.63;5048646;28;20029;-80
2022/07/17 02:58:45;;;;;;;4.25;1.58;;;;;;;13.89;58.95;99872.84;5079189;28;20028;-79
2022/07/17 03:01:11;;;;;;;5.32;2.55;;;;;;;13.86;58.85;99877.88;5047018;28;20039;-80
2022/07/17 03:03:36;;;;;;;4.60;1.60;;;;;;;13.74;58.85;99869.13;5066575;28;20384;-80
2022/07/17 03:06:02;;;;;;;2.55;1.52;;;;;;;13.79;58.88;99872.69;5062762;28;20036;-80
2022/07/17 03:08:27;;;;;;;3.97;1.80;;;;;;;13.62;59.08;99857.63;5063069;28;20075;-79
2022/07/17 03:10:52;;;;;;;1.45;1.33;;;;;;;13.69;59.46;99877.06;5061152;28;20044;-79
2022/07/17 03:13:18;;;;;;;5.22;1.50;;;;;;;13.66;59.03;99873.00;5048035;28;20059;-80
2022/07/17 03:15:43;;;;;;;3.25;1.60;;;;;;;13.54;59.26;99851.59;5062073;28;20036;-79
2022/07/17 03:18:08;;;;;;;2.95;1.45;;;;;;;13.42;59.89;99850.88;5060024;28;20668;-79
2022/07/17 03:20:34;;;;;;;5.50;2.03;;;;;;;13.53;59.88;99867.97;5063222;28;20492;-79
2022/07/17 03:22:59;;;;;;;5.05;2.05;;;;;;;13.54;59.56;99874.97;5078968;28;20167;-79
2022/07/17 03:25:25;;;;;;;6.28;1.92;;;;;;;13.54;59.84;99873.06;5045331;28;20040;-79
2022/07/17 03:27:50;;;;;;;6.28;2.00;;;;;;;13.46;59.60;99865.44;5062709;28;20028;-80
2022/07/17 03:30:15;;;;;;;3.95;1.70;;;;;;;13.41;59.53;99862.66;5043822;28;20029;-79
2022/07/17 03:32:41;;;;;;;6.03;1.70;;;;;;;13.60;59.49;99878.53;5046018;28;20029;-79
2022/07/17 03:35:07;;;;;;;6.47;2.03;;;;;;;13.42;59.17;99864.28;5059400;28;21905;-79
2022/07/17 03:37:33;;;;;;;4.28;2.20;;;;;;;13.49;59.01;99878.38;5061362;28;20033;-79
2022/07/17 03:39:58;;;;;;;2.58;1.20;;;;;;;13.32;59.64;99871.34;5064854;28;20435;-79
2022/07/17 03:42:24;;;;;;;2.35;1.60;;;;;;;13.26;59.81;99862.38;5045504;28;20067;-79
2022/07/17 03:44:49;;;;;;;5.95;1.88;;;;;;;13.41;59.48;99876.06;5046009;28;20127;-79
2022/07/17 03:47:14;;;;;;;4.80;1.60;;;;;;;13.45;59.59;99887.94;5031323;28;20021;-79
2022/07/17 03:49:40;;;;;;;5.32;1.70;;;;;;;13.33;59.65;99887.19;5065196;28;20111;-79
2022/07/17 03:52:05;;;;;;;7.05;1.80;;;;;;;13.26;59.91;99873.09;5060968;28;20047;-79
2022/07/17 03:54:31;;;;;;;4.32;1.33;;;;;;;13.24;59.65;99869.03;5046528;28;20442;-79
2022/07/17 03:56:56;;;;;;;6.65;2.15;;;;;;;13.34;60.17;99896.06;5061997;28;20063;-79
2022/07/17 03:59:22;;;;;;;4.50;1.75;;;;;;;13.46;60.25;99899.47;5058794;28;20476;-79
2022/07/17 04:01:47;;;;;;;5.68;1.98;;;;;;;13.12;60.10;99877.16;5059847;28;20681;-79
2022/07/17 04:04:13;;;;;;;2.58;1.55;;;;;;;13.24;60.50;99903.88;5045888;28;20032;-80
2022/07/17 04:06:38;;;;;;;7.65;2.00;;;;;;;13.27;60.39;99893.53;5039038;28;20033;-79
2022/07/17 04:09:04;;;;;;;5.60;1.95;;;;;;;13.33;60.58;99903.28;5060706;28;20031;-79
2022/07/17 04:11:30;;;;;;;6.05;3.00;;;;;;;13.28;60.85;99897.03;5057553;28;20078;-79
2022/07/17 04:13:55;;;;;;;4.93;1.80;;;;;;;13.36;60.80;99902.81;5046616;28;20484;-80
2022/07/17 04:16:21;;;;;;;5.28;1.60;;;;;;;13.41;60.50;99896.72;5064968;28;20416;-79
2022/07/17 04:18:47;;;;;;;3.42;1.38;;;;;;;13.48;60.56;99921.50;5055519;28;20033;-79
2022/07/17 04:21:13;;;;;;;4.80;1.90;;;;;;;13.45;61.28;99922.78;5045923;28;20101;-80
2022/07/17 04:23:38;;;;;;;4.80;2.10;;;;;;;13.76;60.33;99921.47;5048692;28;20036;-79
2022/07/17 04:26:06;;;;;;;5.10;2.22;;;;;;;13.77;60.60;99923.09;5063199;28;20395;-80
2022/07/17 04:28:32;;;;;;;5.10;1.55;;;;;;;13.86;60.48;99921.66;5056316;28;20028;-79
2022/07/17 04:30:57;;;;;;;4.57;1.65;;;;;;;13.70;60.85;99918.94;5063541;28;20030;-80
2022/07/17 04:33:23;;;;;;;5.65;2.00;;;;;;;13.65;61.26;99935.75;5061946;28;20017;-80
2022/07/17 04:35:48;;;;;;;3.67;1.80;;;;;;;13.92;60.29;99920.66;5058477;28;20102;-80
2022/07/17 04:38:14;;;;;;;3.47;1.30;;;;;;;14.02;60.41;99914.66;5065251;28;20032;-80
2022/07/17 04:40:39;;;;;;;7.95;2.78;;;;;;;14.16;60.86;99926.69;5044719;28;20032;-80
2022/07/17 04:43:05;;;;;;;4.68;1.73;;;;;;;14.00;63.07;99938.25;5062467;28;20032;-80
2022/07/17 04:45:31;;;;;;;4.32;2.17;;;;;;;14.09;62.61;99944.81;5046764;28;20037;-80
2022/07/17 04:47:57;;;;;;;2.10;1.42;;;;;;;14.03;64.43;99941.25;5058991;28;20028;-80
2022/07/17 04:50:23;;;;;;;3.20;1.80;;;;;;;13.83;64.26;99932.03;5058448;28;20033;-80
2022/07/17 04:52:49;;;;;;;4.22;2.15;;;;;;;14.05;62.81;99943.69;5059745;28;20497;-80
2022/07/17 04:55:15;;;;;;;4.07;1.65;;;;;;;14.01;63.81;99937.19;5060222;28;20067;-79
2022/07/17 04:57:40;;;;;;;7.72;3.05;;;;;;;14.03;63.87;99943.13;5059081;28;20025;-80
2022/07/17 05:00:08;;;;;;;7.22;2.03;;;;;;;13.58;64.95;99943.16;5062890;28;20035;-79
2022/07/17 05:02:33;;;;;;;4.35;2.20;;;;;;;13.37;65.68;99941.97;5058915;28;20027;-80
2022/07/17 05:04:59;;;;;;;4.43;1.85;;;;;;;13.64;65.75;99941.38;5075777;28;20025;-80
2022/07/17 05:07:25;;;;;;;7.97;2.38;;;;;;;13.28;65.55;99948.75;5043349;28;20035;-80
2022/07/17 05:09:50;;;;;;;7.60;2.22;;;;;;;13.77;63.79;99924.97;5060056;28;20178;-80
2022/07/17 05:12:16;;;;;;;6.13;2.28;;;;;;;13.75;64.28;99944.00;5026620;28;20079;-79
2022/07/17 05:14:41;;;;;;;7.85;2.58;;;;;;;13.65;64.19;99898.19;5062550;28;20463;-79
2022/07/17 05:17:07;;;;;;;5.18;2.20;;;;;;;13.61;65.90;99929.25;5064634;28;20029;-79
2022/07/17 05:19:33;;;;;;;5.20;2.53;;;;;;;13.30;65.58;99921.72;5069507;28;20055;-79
2022/07/17 05:21:59;;;;;;;5.22;2.30;;;;;;;13.27;66.07;99928.38;5061865;28;21834;-79
2022/07/17 05:24:24;;;;;;;3.65;2.53;;;;;;;13.08;66.33;99904.66;5076667;28;20047;-79
2022/07/17 05:26:50;;;;;;;5.68;2.33;;;;;;;13.07;66.24;99911.88;5046393;28;20036;-79
2022/07/17 05:29:15;;;;;;;7.25;2.60;;;;;;;13.88;64.61;99906.13;5078849;28;20041;-80
2022/07/17 05:31:40;;;;;;;10.23;2.80;;;;;;;14.98;60.48;99880.00;5045401;28;20047;-80
2022/07/17 05:34:06;;;;;;;8.48;2.20;;;;;;;15.58;58.91;99892.50;5049042;28;20361;-79
2022/07/17 05:36:31;;;;;;;4.65;2.60;;;;;;;15.63;58.70;99900.63;5059660;28;20123;-80
2022/07/17 05:38:57;;;;;;;2.85;1.98;;;;;;;15.83;57.86;99905.38;5060706;28;20099;-79
2022/07/17 05:41:22;;;;;;;3.80;2.20;;;;;;;15.88;57.71;99938.53;5037454;28;20107;-80
2022/07/17 05:43:48;;;;;;;4.05;2.33;;;;;;;15.48;59.89;99979.31;5061754;28;20519;-80
2022/07/17 05:46:13;;;;;;;5.53;2.90;;;;;;;15.36;59.41;99985.84;5064121;28;20033;-80
2022/07/17 05:48:38;;;;;;;7.95;3.22;;;;;;;13.92;63.43;100001.19;5061428;28;20112;-79
2022/07/17 05:51:04;;;;;;;7.57;2.42;;;;;;;14.21;63.15;99981.28;5044081;28;20097;-80
2022/07/17 05:53:29;;;;;;;8.10;2.53;;;;;;;14.51;61.94;99961.34;5054958;28;20159;-80
2022/07/17 05:55:55;;;;;;;3.70;2.40;;;;;;;14.06;64.61;99974.84;5058235;28;20060;-80
2022/07/17 05:58:20;;;;;;;11.90;2.17;;;;;;;14.56;62.22;99948.81;5044272;28;20037;-80
2022/07/17 06:00:45;;;;;;;5.70;2.20;;;;;;;14.71;62.03;99954.41;5034059;28;20072;-80
2022/07/17 06:03:11;;;;;;;9.65;2.70;;;;;;;14.52;62.41;99952.25;5060967;28;20036;-80
2022/07/17 06:05:37;;;;;;;5.45;2.38;;;;;;;15.01;61.50;99949.41;5064817;28;20109;-80
2022/07/17 06:08:03;;;;;;;4.35;2.47;;;;;;;14.37;65.53;99962.75;5057490;28;20035;-79
2022/07/17 06:10:29;;;;;;;10.57;2.72;;;;;;;13.75;65.95;99952.06;5060770;28;20021;-79
2022/07/17 06:12:56;;;;;;;5.75;2.75;;;;;;;13.51;66.63;99977.34;5067275;28;20504;-79
2022/07/17 06:15:22;;;;;;;14.63;4.40;;;;;;;13.63;67.55;99964.69;5062675;28;20071;-79
2022/07/17 06:17:47;;;;;;;7.95;2.50;;;;;;;14.55;63.33;99947.19;5057758;28;20055;-80
2022/07/17 06:20:14;;;;;;;7.72;2.33;;;;;;;14.76;62.66;99965.22;5064026;28;20063;-80
2022/07/17 06:22:40;;;;;;;3.20;2.17;;;;;;;15.66;59.35;99960.13;5060650;28;20050;-80
2022/07/17 06:25:07;;;;;;;7.28;2.83;;;;;;;15.09;62.25;99955.41;5064760;28;20115;-80
2022/07/17 06:27:32;;;;;;;6.63;2.65;;;;;;;15.21;61.37;99934.56;5065169;28;20032;-79
2022/07/17 06:29:58;;;;;;;6.32;2.60;;;;;;;14.79;63.42;99921.72;5078308;28;20042;-79
2022/07/17 06:32:24;;;;;;;11.50;2.83;;;;;;;15.74;59.22;99918.47;5058124;28;20090;-79
2022/07/17 06:34:49;;;;;;;5.35;2.55;;;;;;;15.81;59.26;99937.94;5058088;28;20052;-79
2022/07/17 06:37:14;;;;;;;7.05;2.30;;;;;;;15.80;61.62;99938.19;5060523;28;20446;-79
2022/07/17 06:39:40;;;;;;;6.10;2.10;;;;;;;14.75;62.77;99928.66;5056224;28;20270;-79
2022/07/17 06:42:05;;;;;;;6.28;2.28;;;;;;;15.36;61.15;99948.19;5038231;28;20506;-80
2022/07/17 06:44:30;;;;;;;3.97;2.17;;;;;;;15.45;62.26;99941.34;5068069;28;20032;-79
2022/07/17 06:46:58;;;;;;;5.25;2.20;;;;;;;15.20;62.78;99923.00;5061605;28;20427;-79
2022/07/17 06:49:23;;;;;;;8.32;2.53;;;;;;;14.87;63.81;99945.47;5063815;28;20063;-80
2022/07/17 06:51:49;;;;;;;6.38;2.80;;;;;;;14.85;63.69;99928.75;5062016;28;20028;-79
2022/07/17 06:54:15;;;;;;;5.57;1.95;;;;;;;15.97;59.32;99944.25;5044891;28;20032;-79
2022/07/17 06:56:41;;;;;;;3.33;1.85;;;;;;;16.08;59.88;99944.09;5026057;28;20037;-80
2022/07/17 06:59:07;;;;;;;4.32;2.20;;;;;;;16.15;60.66;99938.47;5055959;28;20046;-79
2022/07/17 07:01:34;;;;;;;4.90;1.92;;;;;;;16.69;57.41;99944.50;5051851;28;20491;-79
2022/07/17 07:04:00;;;;;;;5.10;1.75;;;;;;;16.86;56.41;99939.78;5060038;28;20511;-80
2022/07/17 07:06:25;;;;;;;3.25;2.00;;;;;;;16.57;58.92;99936.66;5057631;28;20060;-80
2022/07/17 07:08:51;;;;;;;3.55;1.70;;;;;;;16.74;57.18;99941.84;5065046;28;20396;-80
2022/07/17 07:11:16;;;;;;;7.43;2.22;;;;;;;16.20;60.29;99944.72;5063458;28;20435;-79
2022/07/17 07:13:41;;;;;;;6.03;2.28;;;;;;;15.91;62.03;99945.28;5058324;28;20040;-79
2022/07/17 07:16:07;;;;;;;7.40;2.30;;;;;;;16.13;60.64;99927.16;5064521;28;20033;-80
2022/07/17 07:18:32;;;;;;;5.43;2.13;;;;;;;16.22;59.88;99939.06;5067125;28;20119;-80
2022/07/17 07:20:58;;;;;;;4.55;1.70;;;;;;;16.91;57.75;99956.78;5049269;28;20025;-79
2022/07/17 07:23:24;;;;;;;7.70;2.42;;;;;;;16.75;59.28;99954.28;5057716;28;20024;-79
2022/07/17 07:25:50;;;;;;;4.68;1.90;;;;;;;15.83;60.65;99956.53;5039669;28;20040;-79
2022/07/17 07:28:15;;;;;;;10.60;2.35;;;;;;;16.02;62.10;99947.81;5078111;28;20082;-79
2022/07/17 07:30:41;;;;;;;6.70;2.15;;;;;;;15.78;61.06;99911.53;5066537;28;20118;-79
2022/07/17 07:33:06;;;;;;;8.73;2.10;;;;;;;16.16;60.60;99948.97;5062109;28;20025;-79
2022/07/17 07:35:32;;;;;;;13.90;2.75;;;;;;;16.79;60.14;99936.50;5067810;28;20111;-79
2022/07/17 07:37:57;;;;;;;3.97;1.80;;;;;;;17.18;56.99;99943.13;5058015;28;20041;-79
2022/07/17 07:40:23;;;;;;;7.25;2.67;;;;;;;16.54;60.73;99923.69;5050159;28;20363;-80
2022/07/17 07:42:48;;;;;;;6.30;1.70;;;;;;;16.89;59.12;99933.84;5065540;28;20033;-79
2022/07/17 07:45:14;;;;;;;8.15;2.42;;;;;;;17.14;57.86;99920.47;5066359;28;20028;-79
2022/07/17 07:47:47;;;;;;;4.82;1.77;;;;;;;17.17;59.90;99933.41;5061531;28;20040;-79
2022/07/17 07:50:14;;;;;;;10.85;2.75;;;;;;;17.00;59.02;99927.41;5065157;28;20025;-79
2022/07/17 07:52:40;;;;;;;5.80;1.90;;;;;;;17.47;57.95;99925.44;5058909;28;20059;-79
2022/07/17 07:55:07;;;;;;;6.20;1.83;;;;;;;17.29;60.57;99925.91;5061773;28;20029;-80
2022/07/17 07:57:33;;;;;;;4.00;1.90;;;;;;;17.06;60.16;99929.06;5066526;28;20082;-80
2022/07/17 07:59:59;;;;;;;9.60;2.08;;;;;;;16.96;60.44;99902.06;5088490;28;20028;-80
2022/07/17 08:02:24;;;;;;;9.40;2.10;;;;;;;17.21;59.92;99916.44;5066823;28;20041;-80
2022/07/17 08:04:50;;;;;;;7.07;2.13;;;;;;;17.70;57.77;99924.13;5059992;28;20115;-80
2022/07/17 08:07:15;;;;;;;5.65;1.70;;;;;;;17.86;59.16;99914.97;5066238;28;20039;-79
2022/07/17 08:09:41;;;;;;;12.07;2.28;;;;;;;17.13;58.80;99916.13;5073082;28;20032;-80
2022/07/17 08:12:06;;;;;;;4.40;1.85;;;;;;;16.96;58.67;99910.16;5054800;28;20047;-80
2022/07/17 08:14:32;;;;;;;5.60;2.00;;;;;;;17.13;58.73;99911.56;5055076;28;20101;-79
2022/07/17 08:16:57;;;;;;;7.32;1.75;;;;;;;18.16;56.87;99914.13;5054665;28;20435;-79
2022/07/17 08:19:23;;;;;;;9.57;1.75;;;;;;;18.45;54.94;99912.50;5071392;28;20028;-80
2022/07/17 08:21:48;;;;;;;5.00;2.75;;;;;;;18.77;54.36;99923.78;5034050;28;20432;-80
2022/07/17 08:24:13;;;;;;;5.35;1.90;;;;;;;18.89;54.30;99918.88;5068242;28;20028;-80
2022/07/17 08:26:39;;;;;;;6.68;1.80;;;;;;;18.50;54.34;99923.31;5069480;28;20384;-80
2022/07/17 08:29:04;;;;;;;6.50;2.03;;;;;;;18.65;54.66;99917.88;5062619;28;20033;-80
2022/07/17 08:31:30;;;;;;;5.20;1.70;;;;;;;18.31;55.44;99920.34;5072294;28;20067;-79
2022/07/17 08:33:55;;;;;;;8.13;2.08;;;;;;;18.23;53.16;99929.00;5051519;28;20111;-80
2022/07/17 08:36:20;;;;;;;3.80;1.50;;;;;;;18.17;53.70;99921.19;5067508;28;20039;-80
2022/07/17 08:38:46;;;;;;;7.07;1.77;;;;;;;18.65;54.04;99929.47;5061155;28;20037;-80
2022/07/17 08:41:16;;;;;;;7.00;2.28;;;;;;;18.59;54.44;99924.38;5071043;28;20032;-80
2022/07/17 08:43:41;;;;;;;5.13;1.45;;;;;;;18.99;53.21;99904.47;5052720;28;20021;-80
2022/07/17 08:46:11;;;;;;;4.40;1.55;;;;;;;19.31;52.85;99907.56;5054434;28;20043;-80
2022/07/17 08:48:39;;;;;;;3.25;1.85;;;;;;;19.37;52.44;99898.38;5070652;28;20032;-80
2022/07/17 08:51:06;;;;;;;3.85;1.70;;;;;;;19.57;52.75;99919.88;5070991;28;20066;-80
2022/07/17 08:53:31;;;;;;;3.47;1.33;;;;;;;19.59;53.18;99919.63;5071050;28;20180;-80
2022/07/17 08:55:57;;;;;;;3.70;1.33;;;;;;;20.05;50.97;99926.34;5054115;28;20396;-80
2022/07/17 08:58:23;;;;;;;4.03;1.48;;;;;;;19.98;51.15;99913.09;5070173;28;20020;-80
2022/07/17 09:00:50;;;;;;;5.70;1.90;;;;;;;19.22;52.07;99923.59;5070343;28;20100;-80
2022/07/17 09:03:16;;;;;;;8.50;1.83;;;;;;;19.19;51.73;99929.56;5053811;28;20039;-79
2022/07/17 09:05:42;;;;;;;5.65;1.38;;;;;;;20.00;51.56;99923.66;5083613;28;20039;-80
2022/07/17 09:08:15;;;;;;;4.43;1.30;;;;;;;19.90;51.33;99927.25;5076966;28;20507;-80
2022/07/17 09:10:42;;;;;;;5.60;1.38;;;;;;;19.93;50.73;99906.91;5036859;28;20033;-80
2022/07/17 09:13:17;;;;;;;4.32;1.27;;;;;;;20.10;50.48;99907.28;5050596;28;20389;-80
2022/07/17 09:15:44;;;;;;;7.93;1.90;;;;;;;19.56;49.74;99917.47;5069737;28;20025;-80
2022/07/17 09:18:09;;;;;;;3.67;1.85;;;;;;;19.08;50.09;99919.06;5056550;28;20032;-79
2022/07/17 09:20:43;;;;;;;4.55;1.50;;;;;;;19.76;48.23;99915.44;5050354;28;20020;-80
2022/07/17 09:23:08;;;;;;;5.45;1.25;;;;;;;19.86;50.17;99928.91;5067365;28;20031;-80
2022/07/17 09:25:46;;;;;;;4.05;1.83;;;;;;;19.78;49.48;99920.56;5060009;28;20119;-80
2022/07/17 09:28:14;;;;;;;4.15;1.55;;;;;;;19.85;48.30;99921.06;5069908;28;20476;-79
2022/07/17 09:30:42;;;;;;;2.85;1.10;;;;;;;20.29;48.69;99918.28;5061668;28;20025;-80
2022/07/17 09:33:26;;;;;;;3.95;1.40;;;;;;;20.56;45.79;99922.06;5066526;28;20036;-80
2022/07/17 09:36:08;;;;;;;4.47;1.70;;;;;;;20.46;46.75;99894.25;5057746;28;20043;-80
2022/07/17 09:38:41;;;;;;;5.18;1.45;;;;;;;19.84;45.05;99919.44;5069799;28;20084;-80
2022/07/17 09:41:09;;;;;;;5.32;1.27;;;;;;;19.72;46.30;99916.28;5086967;28;20032;-80
2022/07/17 09:43:38;;;;;;;5.13;2.40;;;;;;;20.22;47.91;99902.34;5070207;28;20045;-80
2022/07/17 09:46:04;;;;;;;5.15;1.20;;;;;;;19.72;44.58;99902.75;5069568;28;20094;-80
2022/07/17 09:48:31;;;;;;;3.10;1.58;;;;;;;19.76;46.33;99909.22;5070163;28;20029;-80
2022/07/17 09:50:56;;;;;;;2.58;1.45;;;;;;;19.95;46.42;99902.81;5045419;28;20029;-80
2022/07/17 09:53:23;;;;;;;5.78;1.50;;;;;;;19.73;46.13;99871.84;5070350;28;20447;-80
2022/07/17 09:55:53;;;;;;;2.38;1.00;;;;;;;20.12;46.55;99902.38;5050222;28;20485;-80
2022/07/17 09:58:21;;;;;;;2.60;1.17;;;;;;;21.09;47.54;99911.16;5064282;28;20036;-80
2022/07/17 10:00:47;;;;;;;2.90;1.52;;;;;;;20.70;46.06;99890.44;5069730;28;20055;-80
2022/07/17 10:03:16;;;;;;;5.15;1.42;;;;;;;20.81;46.82;99886.53;5086609;28;20052;-80
2022/07/17 10:05:41;;;;;;;3.00;1.50;;;;;;;20.89;47.18;99899.44;5078640;28;20032;-80
2022/07/17 10:08:07;;;;;;;2.63;1.27;;;;;;;21.31;46.07;99900.56;5070418;28;20055;-80
2022/07/17 10:10:32;;;;;;;3.10;1.02;;;;;;;21.79;46.57;99898.47;5052648;28;20028;-80
2022/07/17 10:12:58;;;;;;;3.60;1.40;;;;;;;22.16;45.06;99909.31;5066407;28;20017;-80
2022/07/17 10:15:26;;;;;;;3.53;1.50;;;;;;;22.21;44.16;99910.00;5073825;28;20035;-80
2022/07/17 10:18:03;;;;;;;3.75;1.42;;;;;;;21.88;42.00;99904.88;5067376;28;20032;-80
2022/07/17 10:20:29;;;;;;;4.55;1.88;;;;;;;21.36;42.77;99898.56;5062699;28;20028;-80
2022/07/17 10:22:54;;;;;;;3.10;1.60;;;;;;;22.02;44.10;99913.88;5068995;28;20074;-80
2022/07/17 10:25:19;;;;;;;3.63;1.40;;;;;;;22.13;43.26;99907.16;5071262;28;20033;-80
2022/07/17 10:27:53;;;;;;;5.55;1.40;;;;;;;22.39;42.90;99897.44;5049876;28;20025;-80
2022/07/17 10:30:28;;;;;;;1.38;1.25;;;;;;;21.47;40.86;99897.31;5050846;28;20021;-80
2022/07/17 10:32:59;;;;;;;4.22;1.40;;;;;;;21.38;40.49;99896.34;5062447;28;20029;-80
2022/07/17 10:35:26;;;;;;;5.60;1.58;;;;;;;21.59;40.71;99888.72;5037255;28;20714;-80
2022/07/17 10:37:53;;;;;;;4.63;1.42;;;;;;;22.11;42.66;99901.22;5039455;28;20034;-80
2022/07/17 10:40:29;;;;;;;4.47;1.48;;;;;;;21.47;40.15;99889.16;5054294;28;20472;-80
2022/07/17 10:43:02;;;;;;;3.22;1.30;;;;;;;22.31;41.38;99881.81;5050324;28;20037;-80
2022/07/17 10:45:42;;;;;;;6.00;1.10;;;;;;;23.01;41.75;99896.00;5052420;28;20025;-80
2022/07/17 10:48:15;;;;;;;2.35;1.30;;;;;;;23.44;41.29;99893.69;5079830;28;20045;-80
2022/07/17 10:50:45;;;;;;;2.13;1.05;;;;;;;23.36;40.56;99889.00;5073055;28;20035;-80
2022/07/17 10:53:15;;;;;;;4.55;1.48;;;;;;;23.50;40.24;99893.28;5065945;28;20043;-80
2022/07/17 10:55:44;;;;;;;6.90;1.42;;;;;;;23.56;39.20;99894.78;5074320;28;20020;-80
2022/07/17 10:58:32;;;;;;;3.95;1.48;;;;;;;22.12;36.41;99875.66;5072423;28;20511;-80
2022/07/17 11:01:06;;;;;;;5.80;1.50;;;;;;;22.37;37.25;99880.63;5081812;28;20410;-80
2022/07/17 11:03:42;;;;;;;5.72;1.05;;;;;;;22.68;36.55;99869.97;5072703;28;20178;-80
2022/07/17 11:06:32;;;;;;;1.58;1.25;;;;;;;22.21;36.46;99873.88;5056411;28;20024;-80
2022/07/17 11:09:08;;;;;;;4.57;1.55;;;;;;;22.79;36.85;99882.28;5072005;28;20068;-80
2022/07/17 11:11:45;;;;;;;2.67;1.00;;;;;;;22.09;35.61;99860.75;5072342;28;20035;-80
2022/07/17 11:14:11;;;;;;;3.58;1.20;;;;;;;23.19;36.44;99884.16;5055941;28;20044;-80
2022/07/17 11:16:43;;;;;;;3.17;1.35;;;;;;;23.98;37.31;99882.59;5072303;28;20040;-80
2022/07/17 11:19:09;;;;;;;2.35;1.65;;;;;;;24.51;37.13;99880.66;5072174;28;20066;-80
2022/07/17 11:21:45;;;;;;;2.80;1.20;;;;;;;24.44;36.64;99866.66;5068113;28;20039;-80
2022/07/17 11:24:10;;;;;;;5.38;1.80;;;;;;;24.21;36.49;99867.84;5078572;28;20115;-80
2022/07/17 11:26:36;;;;;;;6.53;1.48;;;;;;;24.72;34.82;99880.91;5072473;28;20114;-80
2022/07/17 11:29:01;;;;;;;2.42;1.23;;;;;;;24.77;37.15;99877.25;5055015;28;20111;-80
2022/07/17 11:31:28;;;;;;;3.80;1.30;;;;;;;25.19;35.17;99871.88;5062441;28;20059;-80